| time (UTC) | temp C | wind direction | speed KPH | gust KPH | rain 1hr cm | rain 24hr cm | rain mn cm | humidity % | barometer mb |
| 20260507084550 | 8 | 190 | 0.0 | 0.0 | 0.03 | 1.02 | 0.08 | 82 | 1008.0 |
| 20260507083048 | 8 | 190 | 0.0 | 0.0 | 0.03 | 1.02 | 0.08 | 82 | 1008.1 |
| 20260507081546 | 8 | 190 | 0.0 | 0.0 | 0.03 | 1.02 | 0.08 | 82 | 1008.3 |
| 20260507080046 | 9 | 190 | 0.0 | 0.0 | 0.05 | 1.02 | 0.08 | 82 | 1007.8 |
| 20260507074545 | 9 | 190 | 0.0 | 0.0 | 0.03 | 0.99 | 0.05 | 82 | 1007.5 |
| 20260507073041 | 9 | 190 | 0.0 | 0.0 | 0.05 | 0.99 | 0.05 | 82 | 1007.9 |
| 20260507071540 | 9 | 190 | 0.0 | 0.0 | 0.05 | 0.99 | 0.05 | 82 | 1007.3 |
| 20260507070042 | 10 | 190 | 0.0 | 0.0 | 0.03 | 0.97 | 0.03 | 82 | 1007.7 |
| 20260507064542 | 10 | 190 | 0.0 | 0.0 | 0.03 | 0.97 | 0.03 | 82 | 1007.3 |
| 20260507063037 | 10 | 190 | 0.0 | 0.0 | 0.00 | 0.94 | 0.00 | 82 | 1007.3 |
| 20260507061536 | 10 | 190 | 0.0 | 0.0 | 0.00 | 0.94 | 0.00 | 82 | 1006.8 |
| 20260507060036 | 10 | 190 | 0.0 | 0.0 | 0.00 | 0.94 | 0.00 | 82 | 1006.9 |
| 20260507054530 | 10 | 190 | 0.0 | 0.0 | 0.00 | 0.94 | 0.00 | 82 | 1007.4 |
| 20260507053030 | 10 | 190 | 0.0 | 0.0 | 0.00 | 0.94 | 0.00 | 82 | 1007.7 |
| 20260507051529 | 10 | 190 | 0.0 | 0.0 | 0.00 | 0.94 | 0.00 | 82 | 1007.6 |
| 20260507050035 | 10 | 190 | 0.0 | 0.0 | 0.00 | 0.94 | 0.00 | 82 | 1008.0 |
| 20260507044525 | 10 | 190 | 0.0 | 0.0 | 0.00 | 0.94 | 0.00 | 82 | 1007.6 |
| 20260507043024 | 10 | 190 | 0.0 | 0.0 | 0.00 | 0.94 | 0.00 | 82 | 1007.8 |
| 20260507041537 | 10 | 190 | 0.0 | 0.0 | 0.00 | 0.94 | 0.00 | 82 | 1007.7 |
| 20260507040020 | 10 | 190 | 0.0 | 0.0 | 0.08 | 0.94 | 0.94 | 82 | 1007.4 |
| 20260507034518 | 10 | 190 | 0.0 | 0.0 | 0.13 | 0.94 | 0.94 | 82 | 1007.6 |
| 20260507033016 | 11 | 190 | 0.0 | 0.0 | 0.20 | 0.94 | 0.94 | 82 | 1007.7 |
| 20260507031514 | 11 | 190 | 0.0 | 0.0 | 0.23 | 0.94 | 0.94 | 81 | 1007.6 |
| 20260507031004 | 11 | 0 | 0.0 | 0.0 | 0.15 | 0.86 | 0.86 | 81 | 1007.2 |
| 20260507030004 | 12 | 191 | 0.0 | 1.6 | 0.15 | 0.86 | 0.86 | 81 | 1007.0 |
| 20260507030002 | 11 | 190 | 0.0 | 1.6 | 0.15 | 0.86 | 0.86 | 81 | 1007.3 |
| 20260507025003 | 13 | 191 | 0.0 | 4.8 | 0.13 | 0.81 | 0.81 | 82 | 1007.0 |
| 20260507024504 | 12 | 190 | 0.0 | 0.0 | 0.13 | 0.81 | 0.81 | 82 | 1007.3 |
| 20260507024003 | 13 | 0 | 0.0 | 0.0 | 0.10 | 0.79 | 0.79 | 82 | 1006.6 |
| 20260507023503 | 13 | 0 | 0.0 | 0.0 | 0.08 | 0.76 | 0.76 | 82 | 1006.8 |
| 20260507023004 | 13 | 0 | 0.0 | 0.0 | 0.05 | 0.74 | 0.74 | 82 | 1006.6 |
| 20260507022503 | 13 | 0 | 0.0 | 0.0 | 0.03 | 0.71 | 0.71 | 82 | 1006.4 |
| 20260507022003 | 13 | 0 | 0.0 | 0.0 | 0.03 | 0.71 | 0.71 | 82 | 1006.4 |
| 20260507021503 | 13 | 0 | 0.0 | 0.0 | 0.08 | 0.71 | 0.71 | 82 | 1006.3 |
| 20260507021004 | 13 | 0 | 0.0 | 0.0 | 0.08 | 0.71 | 0.71 | 82 | 1006.3 |
| 20260507020503 | 13 | 0 | 0.0 | 0.0 | 0.08 | 0.71 | 0.71 | 82 | 1006.2 |
| 20260507020004 | 14 | 0 | 0.0 | 0.0 | 0.08 | 0.71 | 0.71 | 82 | 1006.3 |
| 20260507015504 | 14 | 0 | 0.0 | 0.0 | 0.08 | 0.71 | 0.71 | 82 | 1006.4 |
| 20260507015004 | 14 | 0 | 0.0 | 0.0 | 0.05 | 0.69 | 0.69 | 82 | 1006.4 |
| 20260507014510 | 14 | 190 | 0.0 | 0.0 | 0.05 | 0.69 | 0.69 | 82 | 1006.6 |
| 20260507014504 | 14 | 0 | 0.0 | 0.0 | 0.05 | 0.69 | 0.69 | 82 | 1006.3 |
| 20260507014003 | 15 | 0 | 0.0 | 0.0 | 0.05 | 0.69 | 0.69 | 82 | 1006.2 |
| 20260507013503 | 15 | 0 | 0.0 | 0.0 | 0.05 | 0.69 | 0.69 | 82 | 1006.1 |
| 20260507013010 | 15 | 190 | 0.0 | 0.0 | 0.05 | 0.69 | 0.69 | 82 | 1006.3 |
| 20260507013003 | 15 | 0 | 0.0 | 0.0 | 0.05 | 0.69 | 0.69 | 82 | 1005.9 |
| 20260507012003 | 15 | 191 | 0.0 | 1.6 | 0.05 | 0.69 | 0.69 | 82 | 1005.9 |
| 20260507011504 | 15 | 191 | 0.0 | 1.6 | 0.00 | 0.64 | 0.64 | 82 | 1005.8 |
| 20260507011502 | 15 | 190 | 0.0 | 1.6 | 0.00 | 0.64 | 0.64 | 82 | 1006.1 |
| 20260507011004 | 15 | 191 | 0.0 | 1.6 | 0.00 | 0.64 | 0.64 | 82 | 1005.6 |
| 20260507010504 | 15 | 190 | 0.0 | 3.2 | 0.00 | 0.64 | 0.64 | 82 | 1005.4 |
| 20260507010004 | 15 | 191 | 0.0 | 6.4 | 0.00 | 0.64 | 0.64 | 82 | 1005.3 |
| 20260507005504 | 15 | 191 | 0.0 | 9.7 | 0.00 | 0.64 | 0.64 | 82 | 1005.4 |
| 20260507004504 | 15 | 191 | 0.0 | 6.4 | 0.00 | 0.64 | 0.64 | 82 | 1005.3 |
| 20260507003503 | 15 | 191 | 0.0 | 3.2 | 0.00 | 0.64 | 0.64 | 82 | 1005.3 |
| 20260507003011 | 15 | 190 | 0.0 | 1.6 | 0.00 | 0.64 | 0.64 | 82 | 1005.6 |
| 20260507003003 | 15 | 190 | 0.0 | 1.6 | 0.00 | 0.64 | 0.64 | 82 | 1005.3 |
| 20260507002503 | 15 | 191 | 0.0 | 3.2 | 0.00 | 0.64 | 0.64 | 82 | 1005.3 |
| 20260507002004 | 15 | 191 | 0.0 | 6.4 | 0.00 | 0.64 | 0.64 | 82 | 1005.3 |
| 20260507001512 | 15 | 190 | 0.0 | 6.4 | 0.00 | 0.64 | 0.64 | 82 | 1005.7 |
| 20260507001003 | 15 | 191 | 0.0 | 1.6 | 0.00 | 0.64 | 0.64 | 82 | 1005.3 |
| 20260507000503 | 15 | 191 | 0.0 | 1.6 | 0.00 | 0.64 | 0.64 | 82 | 1005.3 |
| 20260507000023 | 15 | 190 | 0.0 | 1.6 | 0.00 | 0.64 | 0.64 | 82 | 1005.5 |
| 20260506235503 | 15 | 0 | 0.0 | 0.0 | 0.00 | 0.64 | 0.64 | 82 | 1005.1 |
| 20260506235003 | 15 | 191 | 0.0 | 8.0 | 0.00 | 0.64 | 0.64 | 82 | 1005.1 |
| 20260506234512 | 15 | 190 | 0.0 | 11.3 | 0.00 | 0.64 | 0.64 | 82 | 1005.3 |
| 20260506234503 | 15 | 191 | 0.0 | 8.0 | 0.00 | 0.64 | 0.64 | 82 | 1005.1 |
| 20260506234003 | 15 | 191 | 0.0 | 6.4 | 0.00 | 0.64 | 0.64 | 82 | 1005.1 |
| 20260506233503 | 15 | 191 | 0.0 | 6.4 | 0.00 | 0.64 | 0.64 | 82 | 1005.1 |
| 20260506233016 | 15 | 190 | 0.0 | 9.7 | 0.00 | 0.64 | 0.64 | 82 | 1005.3 |
| 20260506232503 | 15 | 191 | 1.6 | 9.7 | 0.00 | 0.64 | 0.64 | 82 | 1004.9 |
| 20260506232004 | 15 | 190 | 0.0 | 9.7 | 0.00 | 0.64 | 0.64 | 82 | 1004.9 |
| 20260506231514 | 15 | 190 | 0.0 | 3.2 | 0.03 | 0.64 | 0.64 | 82 | 1005.2 |
| 20260506231503 | 15 | 191 | 0.0 | 3.2 | 0.03 | 0.64 | 0.64 | 82 | 1005.0 |
| 20260506231004 | 15 | 191 | 0.0 | 6.4 | 0.03 | 0.64 | 0.64 | 82 | 1004.9 |
| 20260506230011 | 15 | 190 | 0.0 | 3.2 | 0.05 | 0.64 | 0.64 | 82 | 1005.1 |
| 20260506230003 | 15 | 190 | 0.0 | 3.2 | 0.05 | 0.64 | 0.64 | 82 | 1004.9 |
| 20260506225503 | 15 | 190 | 0.0 | 3.2 | 0.08 | 0.64 | 0.64 | 82 | 1004.7 |
| 20260506225004 | 15 | 191 | 0.0 | 4.8 | 0.10 | 0.64 | 0.64 | 82 | 1004.8 |
| 20260506224513 | 15 | 190 | 0.0 | 4.8 | 0.10 | 0.64 | 0.64 | 82 | 1005.0 |
| 20260506224503 | 15 | 191 | 0.0 | 4.8 | 0.10 | 0.64 | 0.64 | 82 | 1004.9 |
| 20260506224003 | 15 | 191 | 0.0 | 4.8 | 0.10 | 0.64 | 0.64 | 82 | 1004.9 |
| 20260506223012 | 15 | 190 | 0.0 | 3.2 | 0.13 | 0.64 | 0.64 | 82 | 1005.0 |
| 20260506223003 | 15 | 191 | 0.0 | 1.6 | 0.13 | 0.64 | 0.64 | 82 | 1004.8 |
| 20260506222503 | 15 | 191 | 0.0 | 4.8 | 0.13 | 0.64 | 0.64 | 82 | 1004.7 |
| 20260506222003 | 15 | 191 | 0.0 | 4.8 | 0.10 | 0.61 | 0.61 | 82 | 1004.8 |
| 20260506221511 | 15 | 190 | 0.0 | 6.4 | 0.10 | 0.61 | 0.61 | 82 | 1005.0 |
| 20260506221504 | 15 | 191 | 0.0 | 6.4 | 0.10 | 0.61 | 0.61 | 82 | 1004.8 |
| 20260506220503 | 15 | 191 | 0.0 | 8.0 | 0.10 | 0.58 | 0.58 | 81 | 1004.8 |
| 20260506220012 | 15 | 190 | 0.0 | 9.7 | 0.13 | 0.58 | 0.58 | 81 | 1005.1 |
| 20260506220004 | 15 | 191 | 0.0 | 8.0 | 0.13 | 0.58 | 0.58 | 81 | 1004.9 |
| 20260506215004 | 15 | 191 | 0.0 | 3.2 | 0.08 | 0.53 | 0.53 | 82 | 1004.9 |
| 20260506214511 | 15 | 190 | 0.0 | 3.2 | 0.08 | 0.53 | 0.53 | 81 | 1005.2 |
| 20260506214504 | 15 | 190 | 0.0 | 3.2 | 0.08 | 0.53 | 0.53 | 81 | 1005.0 |
| 20260506214003 | 15 | 191 | 0.0 | 6.4 | 0.08 | 0.53 | 0.53 | 82 | 1004.9 |
| 20260506213503 | 15 | 191 | 0.0 | 6.4 | 0.10 | 0.53 | 0.53 | 81 | 1005.0 |
| 20260506213014 | 15 | 190 | 0.0 | 6.4 | 0.08 | 0.51 | 0.51 | 81 | 1005.4 |
| 20260506213004 | 15 | 191 | 0.0 | 6.4 | 0.08 | 0.51 | 0.51 | 81 | 1005.2 |
| 20260506212503 | 15 | 191 | 0.0 | 3.2 | 0.13 | 0.51 | 0.51 | 81 | 1005.1 |
| 20260506212004 | 15 | 191 | 0.0 | 6.4 | 0.18 | 0.51 | 0.51 | 81 | 1005.1 |
| 20260506211512 | 15 | 190 | 0.0 | 6.4 | 0.18 | 0.51 | 0.51 | 81 | 1005.2 |
| 20260506211503 | 15 | 191 | 0.0 | 6.4 | 0.18 | 0.51 | 0.51 | 81 | 1005.1 |
| 20260506211003 | 15 | 190 | 0.0 | 6.4 | 0.20 | 0.51 | 0.51 | 81 | 1005.0 |
| 20260506210504 | 15 | 191 | 0.0 | 6.4 | 0.18 | 0.48 | 0.48 | 81 | 1005.1 |
| 20260506210014 | 15 | 190 | 0.0 | 6.4 | 0.15 | 0.46 | 0.46 | 81 | 1005.3 |
| 20260506210003 | 15 | 190 | 0.0 | 6.4 | 0.15 | 0.46 | 0.46 | 81 | 1005.2 |
| 20260506205503 | 15 | 191 | 0.0 | 6.4 | 0.15 | 0.46 | 0.46 | 81 | 1005.1 |
| 20260506205004 | 15 | 191 | 0.0 | 3.2 | 0.18 | 0.46 | 0.46 | 81 | 1005.2 |
| 20260506204512 | 15 | 190 | 0.0 | 1.6 | 0.20 | 0.46 | 0.46 | 81 | 1005.4 |
| 20260506204503 | 15 | 191 | 0.0 | 1.6 | 0.23 | 0.46 | 0.46 | 81 | 1005.3 |
| 20260506204003 | 15 | 191 | 0.0 | 1.6 | 0.23 | 0.46 | 0.46 | 81 | 1005.3 |
| 20260506203504 | 15 | 191 | 0.0 | 4.8 | 0.20 | 0.43 | 0.43 | 81 | 1005.3 |
| 20260506203012 | 15 | 190 | 0.0 | 6.4 | 0.20 | 0.41 | 0.41 | 81 | 1005.6 |
| 20260506203003 | 15 | 191 | 0.0 | 6.4 | 0.20 | 0.41 | 0.41 | 81 | 1005.5 |
| 20260506202003 | 15 | 191 | 0.0 | 9.7 | 0.13 | 0.33 | 0.33 | 81 | 1005.5 |
| 20260506201513 | 15 | 190 | 0.0 | 9.7 | 0.15 | 0.33 | 0.33 | 81 | 1005.8 |
| 20260506201504 | 15 | 191 | 0.0 | 9.7 | 0.15 | 0.33 | 0.33 | 81 | 1005.5 |
| 20260506201003 | 15 | 191 | 0.0 | 4.8 | 0.13 | 0.30 | 0.30 | 81 | 1005.5 |
| 20260506200503 | 15 | 190 | 0.0 | 4.8 | 0.13 | 0.30 | 0.30 | 81 | 1005.6 |
| 20260506200014 | 15 | 190 | 0.0 | 3.2 | 0.13 | 0.30 | 0.30 | 81 | 1005.7 |
| 20260506200004 | 15 | 191 | 0.0 | 3.2 | 0.13 | 0.30 | 0.30 | 81 | 1005.5 |
| 20260506195503 | 15 | 191 | 0.0 | 4.8 | 0.13 | 0.30 | 0.30 | 80 | 1005.8 |
| 20260506194513 | 15 | 190 | 0.0 | 11.3 | 0.05 | 0.23 | 0.23 | 80 | 1006.0 |
| 20260506194504 | 15 | 191 | 1.6 | 11.3 | 0.05 | 0.23 | 0.23 | 80 | 1005.9 |
| 20260506194004 | 15 | 191 | 0.0 | 11.3 | 0.08 | 0.23 | 0.23 | 80 | 1005.9 |
| 20260506193503 | 16 | 191 | 0.0 | 4.8 | 0.08 | 0.20 | 0.20 | 80 | 1005.9 |
| 20260506193012 | 15 | 190 | 0.0 | 4.8 | 0.08 | 0.20 | 0.20 | 80 | 1006.1 |
| 20260506193004 | 16 | 191 | 0.0 | 4.8 | 0.08 | 0.20 | 0.20 | 80 | 1006.0 |
| 20260506192504 | 16 | 191 | 0.0 | 4.8 | 0.08 | 0.20 | 0.20 | 80 | 1005.9 |
| 20260506192003 | 16 | 191 | 0.0 | 4.8 | 0.08 | 0.20 | 0.20 | 80 | 1006.0 |
| 20260506191513 | 16 | 190 | 0.0 | 0.0 | 0.05 | 0.18 | 0.18 | 80 | 1006.1 |
| 20260506191504 | 16 | 0 | 0.0 | 0.0 | 0.05 | 0.18 | 0.18 | 80 | 1006.0 |
| 20260506191003 | 16 | 0 | 0.0 | 0.0 | 0.05 | 0.18 | 0.18 | 80 | 1006.0 |
| 20260506190503 | 16 | 191 | 0.0 | 3.2 | 0.08 | 0.18 | 0.18 | 80 | 1006.0 |
| 20260506190012 | 16 | 190 | 0.0 | 3.2 | 0.08 | 0.18 | 0.18 | 80 | 1006.1 |
| 20260506190004 | 16 | 191 | 0.0 | 3.2 | 0.08 | 0.18 | 0.18 | 80 | 1006.0 |
| 20260506185504 | 16 | 191 | 0.0 | 3.2 | 0.08 | 0.18 | 0.18 | 80 | 1006.0 |
| 20260506185003 | 16 | 190 | 0.0 | 3.2 | 0.10 | 0.18 | 0.18 | 80 | 1006.1 |
| 20260506184512 | 16 | 190 | 0.0 | 6.4 | 0.10 | 0.18 | 0.18 | 80 | 1006.1 |
| 20260506184504 | 16 | 190 | 0.0 | 3.2 | 0.10 | 0.18 | 0.18 | 80 | 1006.0 |
| 20260506184003 | 16 | 191 | 0.0 | 1.6 | 0.10 | 0.15 | 0.15 | 80 | 1006.1 |
| 20260506183504 | 16 | 0 | 0.0 | 0.0 | 0.10 | 0.13 | 0.13 | 80 | 1006.3 |
| 20260506183012 | 16 | 190 | 0.0 | 1.6 | 0.10 | 0.13 | 0.13 | 80 | 1006.4 |
| 20260506183004 | 16 | 0 | 0.0 | 0.0 | 0.10 | 0.13 | 0.13 | 80 | 1006.2 |
| 20260506182004 | 16 | 191 | 0.0 | 6.4 | 0.13 | 0.13 | 0.13 | 79 | 1005.8 |
| 20260506181513 | 16 | 190 | 0.0 | 6.4 | 0.13 | 0.13 | 0.13 | 79 | 1005.8 |
| 20260506181003 | 16 | 191 | 0.0 | 4.8 | 0.10 | 0.10 | 0.10 | 78 | 1006.0 |
| 20260506180503 | 16 | 191 | 0.0 | 4.8 | 0.10 | 0.10 | 0.10 | 78 | 1006.4 |
| 20260506180018 | 16 | 190 | 0.0 | 6.4 | 0.10 | 0.10 | 0.10 | 78 | 1006.6 |
| 20260506180005 | 16 | 191 | 0.0 | 6.4 | 0.10 | 0.10 | 0.10 | 78 | 1006.3 |
| 20260506175503 | 16 | 190 | 0.0 | 6.4 | 0.10 | 0.10 | 0.10 | 77 | 1006.4 |
| 20260506174513 | 16 | 190 | 0.0 | 9.7 | 0.08 | 0.08 | 0.08 | 75 | 1006.8 |
| 20260506174504 | 16 | 191 | 0.0 | 9.7 | 0.08 | 0.08 | 0.08 | 75 | 1006.8 |
| 20260506174003 | 17 | 190 | 0.0 | 9.7 | 0.05 | 0.05 | 0.05 | 74 | 1006.8 |
| 20260506173504 | 17 | 191 | 0.0 | 8.0 | 0.03 | 0.03 | 0.03 | 73 | 1007.0 |
| 20260506173012 | 17 | 190 | 0.0 | 6.4 | 0.03 | 0.03 | 0.03 | 72 | 1007.2 |
| 20260506172503 | 18 | 191 | 0.0 | 9.7 | 0.00 | 0.00 | 0.00 | 69 | 1007.3 |
| 20260506171518 | 18 | 190 | 0.0 | 9.7 | 0.00 | 0.00 | 0.00 | 65 | 1007.5 |
| 20260506171503 | 18 | 191 | 0.0 | 6.4 | 0.00 | 0.00 | 0.00 | 65 | 1007.4 |
| 20260506171003 | 19 | 191 | 1.6 | 9.7 | 0.00 | 0.00 | 0.00 | 64 | 1007.3 |
| 20260506170504 | 19 | 191 | 0.0 | 9.7 | 0.00 | 0.00 | 0.00 | 63 | 1007.2 |
| 20260506170013 | 19 | 190 | 0.0 | 11.3 | 0.00 | 0.00 | 0.00 | 61 | 1007.2 |
| 20260506170003 | 20 | 191 | 0.0 | 11.3 | 0.00 | 0.00 | 0.00 | 61 | 1007.1 |
| 20260506164512 | 20 | 190 | 0.0 | 14.5 | 0.00 | 0.00 | 0.00 | 58 | 1007.0 |
| 20260506164504 | 20 | 191 | 1.6 | 14.5 | 0.00 | 0.00 | 0.00 | 58 | 1006.9 |
| 20260506163020 | 20 | 190 | 0.0 | 4.8 | 0.00 | 0.00 | 0.00 | 58 | 1007.1 |
| 20260506163004 | 20 | 191 | 0.0 | 4.8 | 0.00 | 0.00 | 0.00 | 58 | 1007.1 |
| 20260506162504 | 20 | 191 | 0.0 | 6.4 | 0.00 | 0.00 | 0.00 | 59 | 1007.1 |
| 20260506162004 | 20 | 190 | 1.6 | 19.3 | 0.00 | 0.00 | 0.00 | 59 | 1007.1 |
| 20260506161520 | 20 | 190 | 0.0 | 19.3 | 0.00 | 0.00 | 0.00 | 59 | 1007.3 |
| 20260506161503 | 20 | 191 | 1.6 | 19.3 | 0.00 | 0.00 | 0.00 | 59 | 1007.2 |
| 20260506161004 | 20 | 191 | 0.0 | 8.0 | 0.00 | 0.00 | 0.00 | 60 | 1007.4 |
| 20260506160503 | 20 | 191 | 0.0 | 4.8 | 0.00 | 0.00 | 0.00 | 61 | 1007.5 |
| 20260506160015 | 19 | 190 | 0.0 | 1.6 | 0.00 | 0.00 | 0.00 | 62 | 1007.7 |
| 20260506160003 | 19 | 191 | 0.0 | 1.6 | 0.00 | 0.00 | 0.00 | 62 | 1007.7 |
| 20260506155504 | 19 | 191 | 0.0 | 1.6 | 0.00 | 0.00 | 0.00 | 62 | 1007.7 |
| 20260506155004 | 19 | 191 | 0.0 | 1.6 | 0.00 | 0.00 | 0.00 | 61 | 1007.7 |
| 20260506154512 | 19 | 190 | 0.0 | 0.0 | 0.00 | 0.00 | 0.00 | 62 | 1007.8 |
| 20260506154503 | 19 | 0 | 0.0 | 0.0 | 0.00 | 0.00 | 0.00 | 62 | 1007.7 |
| 20260506154004 | 19 | 0 | 0.0 | 0.0 | 0.00 | 0.00 | 0.00 | 63 | 1007.8 |
| 20260506153503 | 19 | 191 | 0.0 | 6.4 | 0.00 | 0.00 | 0.00 | 63 | 1007.9 |
| 20260506153011 | 18 | 190 | 0.0 | 6.4 | 0.00 | 0.00 | 0.00 | 63 | 1008.1 |
| 20260506153004 | 18 | 191 | 0.0 | 6.4 | 0.00 | 0.00 | 0.00 | 63 | 1008.0 |
| 20260506152503 | 18 | 191 | 0.0 | 6.4 | 0.00 | 0.00 | 0.00 | 64 | 1008.0 |
| 20260506152004 | 18 | 191 | 0.0 | 6.4 | 0.00 | 0.00 | 0.00 | 64 | 1007.9 |
| 20260506151512 | 18 | 190 | 0.0 | 6.4 | 0.00 | 0.00 | 0.00 | 64 | 1008.0 |
| 20260506151504 | 18 | 191 | 0.0 | 6.4 | 0.00 | 0.00 | 0.00 | 64 | 1008.1 |
| 20260506151003 | 18 | 191 | 0.0 | 8.0 | 0.00 | 0.00 | 0.00 | 65 | 1008.0 |
| 20260506150504 | 18 | 191 | 0.0 | 8.0 | 0.00 | 0.00 | 0.00 | 65 | 1008.1 |
| 20260506150012 | 18 | 190 | 0.0 | 4.8 | 0.00 | 0.00 | 0.00 | 65 | 1008.3 |
| 20260506150003 | 18 | 191 | 0.0 | 9.7 | 0.00 | 0.00 | 0.00 | 65 | 1008.3 |
| 20260506145504 | 18 | 191 | 1.6 | 16.1 | 0.00 | 0.00 | 0.00 | 65 | 1008.3 |
| 20260506145003 | 18 | 191 | 1.6 | 22.5 | 0.00 | 0.00 | 0.00 | 65 | 1008.2 |
| 20260506144512 | 18 | 190 | 1.6 | 22.5 | 0.00 | 0.00 | 0.00 | 65 | 1008.3 |
| 20260506144503 | 18 | 191 | 0.0 | 22.5 | 0.00 | 0.00 | 0.00 | 66 | 1008.2 |
| 20260506143503 | 18 | 191 | 0.0 | 11.3 | 0.00 | 0.00 | 0.00 | 66 | 1008.4 |
| 20260506143012 | 18 | 190 | 0.0 | 12.9 | 0.00 | 0.00 | 0.00 | 65 | 1008.5 |
| 20260506143003 | 18 | 191 | 1.6 | 12.9 | 0.00 | 0.00 | 0.00 | 65 | 1008.4 |
| 20260506142503 | 18 | 190 | 0.0 | 12.9 | 0.00 | 0.00 | 0.00 | 66 | 1008.4 |
| 20260506141512 | 17 | 190 | 0.0 | 8.0 | 0.00 | 0.00 | 0.00 | 67 | 1008.5 |
| 20260506141503 | 18 | 191 | 1.6 | 22.5 | 0.00 | 0.00 | 0.00 | 67 | 1008.4 |
| 20260506141003 | 18 | 191 | 1.6 | 22.5 | 0.00 | 0.00 | 0.00 | 66 | 1008.5 |
| 20260506140504 | 18 | 191 | 1.6 | 14.5 | 0.00 | 0.00 | 0.00 | 66 | 1008.5 |
| 20260506140012 | 17 | 190 | 0.0 | 11.3 | 0.00 | 0.00 | 0.00 | 66 | 1008.4 |
| 20260506140003 | 18 | 191 | 0.0 | 11.3 | 0.00 | 0.00 | 0.00 | 66 | 1008.3 |
| 20260506135503 | 18 | 191 | 0.0 | 6.4 | 0.00 | 0.00 | 0.00 | 67 | 1008.1 |
| 20260506134525 | 17 | 190 | 0.0 | 6.4 | 0.00 | 0.00 | 0.00 | 68 | 1008.3 |
| 20260506134503 | 17 | 191 | 0.0 | 6.4 | 0.00 | 0.00 | 0.00 | 68 | 1008.2 |
| 20260506134003 | 17 | 191 | 0.0 | 6.4 | 0.00 | 0.00 | 0.00 | 68 | 1008.1 |
| 20260506133504 | 17 | 191 | 0.0 | 6.4 | 0.00 | 0.00 | 0.00 | 69 | 1008.1 |
| 20260506133013 | 17 | 190 | 0.0 | 3.2 | 0.00 | 0.00 | 0.00 | 68 | 1008.1 |
| 20260506133003 | 17 | 191 | 0.0 | 3.2 | 0.00 | 0.00 | 0.00 | 68 | 1008.1 |
| 20260506132504 | 17 | 191 | 0.0 | 1.6 | 0.00 | 0.00 | 0.00 | 69 | 1008.2 |
| 20260506132003 | 17 | 191 | 0.0 | 1.6 | 0.00 | 0.00 | 0.00 | 69 | 1008.3 |
| 20260506131513 | 17 | 190 | 0.0 | 1.6 | 0.00 | 0.00 | 0.00 | 70 | 1008.5 |
| 20260506131503 | 17 | 191 | 0.0 | 1.6 | 0.00 | 0.00 | 0.00 | 70 | 1008.4 |
| 20260506131004 | 17 | 191 | 0.0 | 8.0 | 0.00 | 0.00 | 0.00 | 70 | 1008.3 |
| 20260506130503 | 17 | 190 | 0.0 | 8.0 | 0.00 | 0.00 | 0.00 | 70 | 1008.2 |
| 20260506130015 | 16 | 190 | 0.0 | 6.4 | 0.00 | 0.00 | 0.00 | 70 | 1008.4 |
| 20260506130003 | 17 | 191 | 0.0 | 6.4 | 0.00 | 0.00 | 0.00 | 70 | 1008.5 |
| 20260506125503 | 17 | 191 | 0.0 | 4.8 | 0.00 | 0.00 | 0.00 | 70 | 1008.5 |
| 20260506125003 | 17 | 191 | 0.0 | 6.4 | 0.00 | 0.00 | 0.00 | 70 | 1008.6 |
| 20260506124516 | 16 | 190 | 0.0 | 6.4 | 0.00 | 0.00 | 0.00 | 70 | 1008.7 |
| 20260506124504 | 17 | 191 | 0.0 | 6.4 | 0.00 | 0.00 | 0.00 | 70 | 1008.5 |
| 20260506124004 | 17 | 191 | 0.0 | 6.4 | 0.00 | 0.00 | 0.00 | 70 | 1008.6 |
| 20260506123012 | 16 | 190 | 0.0 | 3.2 | 0.00 | 0.00 | 0.00 | 71 | 1008.8 |
| 20260506123004 | 17 | 191 | 0.0 | 3.2 | 0.00 | 0.00 | 0.00 | 71 | 1008.7 |
| 20260506122503 | 16 | 191 | 0.0 | 8.0 | 0.00 | 0.00 | 0.00 | 71 | 1008.7 |
| 20260506122004 | 16 | 191 | 0.0 | 8.0 | 0.00 | 0.00 | 0.00 | 70 | 1008.6 |
| 20260506121513 | 16 | 190 | 0.0 | 6.4 | 0.00 | 0.00 | 0.00 | 70 | 1008.6 |
| 20260506121003 | 16 | 191 | 0.0 | 9.7 | 0.00 | 0.00 | 0.00 | 71 | 1008.7 |
| 20260506120504 | 16 | 191 | 1.6 | 9.7 | 0.00 | 0.00 | 0.00 | 70 | 1008.6 |
| 20260506120014 | 16 | 190 | 0.0 | 8.0 | 0.00 | 0.00 | 0.00 | 70 | 1008.5 |
| 20260506120004 | 16 | 191 | 0.0 | 8.0 | 0.00 | 0.00 | 0.00 | 70 | 1008.4 |
| 20260506115503 | 16 | 190 | 0.0 | 9.7 | 0.00 | 0.00 | 0.00 | 71 | 1008.5 |
| 20260506115004 | 16 | 191 | 0.0 | 9.7 | 0.00 | 0.00 | 0.00 | 71 | 1008.4 |
| 20260506114521 | 16 | 190 | 0.0 | 8.0 | 0.00 | 0.00 | 0.00 | 70 | 1008.8 |
| 20260506114503 | 16 | 191 | 0.0 | 8.0 | 0.00 | 0.00 | 0.00 | 70 | 1008.7 |
| 20260506114003 | 16 | 191 | 0.0 | 8.0 | 0.00 | 0.00 | 0.00 | 71 | 1008.5 |
| 20260506113504 | 16 | 191 | 0.0 | 9.7 | 0.00 | 0.00 | 0.00 | 72 | 1008.6 |
| 20260506113012 | 16 | 190 | 0.0 | 9.7 | 0.00 | 0.00 | 0.00 | 72 | 1008.6 |
| 20260506113003 | 16 | 191 | 1.6 | 9.7 | 0.00 | 0.00 | 0.00 | 72 | 1008.5 |
| 20260506112003 | 16 | 191 | 0.0 | 8.0 | 0.00 | 0.00 | 0.00 | 73 | 1008.6 |
| 20260506111512 | 15 | 190 | 0.0 | 9.7 | 0.00 | 0.00 | 0.00 | 73 | 1009.0 |
| 20260506111503 | 16 | 191 | 0.0 | 9.7 | 0.00 | 0.00 | 0.00 | 73 | 1008.9 |
| 20260506110503 | 15 | 191 | 0.0 | 6.4 | 0.00 | 0.00 | 0.00 | 73 | 1009.0 |
| 20260506110016 | 15 | 190 | 0.0 | 6.4 | 0.00 | 0.00 | 0.00 | 73 | 1009.0 |
| 20260506110003 | 15 | 191 | 0.0 | 4.8 | 0.00 | 0.00 | 0.00 | 73 | 1009.0 |
| 20260506105503 | 15 | 190 | 0.0 | 4.8 | 0.00 | 0.00 | 0.00 | 73 | 1008.9 |
| 20260506105003 | 15 | 191 | 0.0 | 4.8 | 0.00 | 0.00 | 0.00 | 73 | 1009.0 |
| 20260506104512 | 15 | 190 | 0.0 | 8.0 | 0.00 | 0.00 | 0.00 | 73 | 1009.1 |
| 20260506103503 | 15 | 191 | 0.0 | 3.2 | 0.00 | 0.00 | 0.00 | 73 | 1008.9 |
| 20260506103020 | 15 | 190 | 0.0 | 1.6 | 0.00 | 0.00 | 0.00 | 74 | 1008.9 |
| 20260506103003 | 15 | 191 | 0.0 | 6.4 | 0.00 | 0.00 | 0.00 | 74 | 1008.8 |
| 20260506102504 | 15 | 190 | 0.0 | 6.4 | 0.00 | 0.00 | 0.00 | 74 | 1008.7 |
| 20260506102003 | 15 | 191 | 0.0 | 4.8 | 0.00 | 0.00 | 0.00 | 74 | 1008.7 |
| 20260506101511 | 15 | 190 | 0.0 | 4.8 | 0.00 | 0.00 | 0.00 | 74 | 1008.8 |
| 20260506101004 | 15 | 191 | 1.6 | 3.2 | 0.00 | 0.00 | 0.00 | 73 | 1008.6 |
| 20260506100050 | 15 | 190 | 0.0 | 6.4 | 0.00 | 0.00 | 0.00 | 73 | 1008.7 |
| 20260506094550 | 15 | 190 | 0.0 | 4.8 | 0.00 | 0.00 | 0.00 | 73 | 1008.8 |
| 20260506093053 | 15 | 190 | 0.0 | 4.8 | 0.00 | 0.00 | 0.00 | 72 | 1008.8 |
| 20260506091548 | 15 | 190 | 0.0 | 0.0 | 0.00 | 0.00 | 0.00 | 72 | 1008.8 |
| 20260506090046 | 15 | 190 | 0.0 | 0.0 | 0.00 | 0.00 | 0.00 | 71 | 1008.8 |